sensor_id;sensor_type;location;lat;lon;timestamp;pressure;altitude;pressure_sealevel;temperature;humidity
1776;BME280;885;42.626;23.200;2023-02-19T00:02:07;82940.66;;;11.84;49.08
1776;BME280;885;42.626;23.200;2023-02-19T00:04:34;82946.56;;;11.82;49.39
1776;BME280;885;42.626;23.200;2023-02-19T00:07:01;82941.06;;;11.80;49.42
1776;BME280;885;42.626;23.200;2023-02-19T00:09:28;82847.78;;;11.74;49.49
1776;BME280;885;42.626;23.200;2023-02-19T00:11:54;82996.31;;;11.89;49.12
1776;BME280;885;42.626;23.200;2023-02-19T00:14:22;83027.41;;;11.91;49.18
1776;BME280;885;42.626;23.200;2023-02-19T00:16:49;83098.81;;;11.96;49.43
1776;BME280;885;42.626;23.200;2023-02-19T00:19:17;82935.16;;;11.82;49.44
1776;BME280;885;42.626;23.200;2023-02-19T00:21:45;82982.09;;;11.89;49.17
1776;BME280;885;42.626;23.200;2023-02-19T00:24:13;82952.03;;;11.84;49.41
1776;BME280;885;42.626;23.200;2023-02-19T00:26:40;82902.09;;;11.78;49.61
1776;BME280;885;42.626;23.200;2023-02-19T00:29:08;82827.44;;;11.78;49.78
1776;BME280;885;42.626;23.200;2023-02-19T00:31:39;82842.31;;;11.72;50.16
1776;BME280;885;42.626;23.200;2023-02-19T00:34:05;82717.28;;;11.63;50.15
1776;BME280;885;42.626;23.200;2023-02-19T00:36:36;82741.81;;;11.67;50.04
1776;BME280;885;42.626;23.200;2023-02-19T00:39:04;82883.94;;;11.82;49.35
1776;BME280;885;42.626;23.200;2023-02-19T00:41:31;82780.59;;;11.70;49.98
1776;BME280;885;42.626;23.200;2023-02-19T00:43:59;82754.28;;;11.63;50.22
1776;BME280;885;42.626;23.200;2023-02-19T00:46:28;82736.31;;;11.65;49.96
1776;BME280;885;42.626;23.200;2023-02-19T00:48:58;82805.78;;;11.74;49.72
1776;BME280;885;42.626;23.200;2023-02-19T00:51:26;82851.75;;;11.77;49.56
1776;BME280;885;42.626;23.200;2023-02-19T00:53:53;82744.25;;;11.71;49.70
1776;BME280;885;42.626;23.200;2023-02-19T00:56:20;82704.38;;;11.58;50.72
1776;BME280;885;42.626;23.200;2023-02-19T00:58:47;82683.13;;;11.57;50.61
1776;BME280;885;42.626;23.200;2023-02-19T01:01:14;82521.66;;;11.51;50.61
1776;BME280;885;42.626;23.200;2023-02-19T01:03:42;82705.28;;;11.69;49.31
1776;BME280;885;42.626;23.200;2023-02-19T01:06:10;82701.09;;;11.62;50.58
1776;BME280;885;42.626;23.200;2023-02-19T01:08:38;82586.88;;;11.59;49.76
1776;BME280;885;42.626;23.200;2023-02-19T01:11:06;82553.81;;;11.56;49.85
1776;BME280;885;42.626;23.200;2023-02-19T01:13:34;82668.72;;;11.65;49.36
1776;BME280;885;42.626;23.200;2023-02-19T01:16:05;82590.13;;;11.55;50.42
1776;BME280;885;42.626;23.200;2023-02-19T01:18:32;82434.16;;;11.45;50.24
1776;BME280;885;42.626;23.200;2023-02-19T01:21:04;82385.81;;;11.38;50.48
1776;BME280;885;42.626;23.200;2023-02-19T01:23:33;82482.72;;;11.56;49.28
1776;BME280;885;42.626;23.200;2023-02-19T01:26:03;82483.16;;;11.52;49.92
1776;BME280;885;42.626;23.200;2023-02-19T01:28:30;82502.84;;;11.54;49.90
1776;BME280;885;42.626;23.200;2023-02-19T01:31:00;82619.22;;;11.43;52.66
1776;BME280;885;42.626;23.200;2023-02-19T01:33:27;82330.50;;;11.31;50.65
1776;BME280;885;42.626;23.200;2023-02-19T01:35:53;82545.44;;;11.14;55.99
1776;BME280;885;42.626;23.200;2023-02-19T01:38:21;81867.94;;;10.87;52.10
1776;BME280;885;42.626;23.200;2023-02-19T01:40:55;82135.47;;;10.70;57.77
1776;BME280;885;42.626;23.200;2023-02-19T01:43:22;81857.56;;;10.42;58.58
1776;BME280;885;42.626;23.200;2023-02-19T01:45:49;81583.47;;;10.08;60.22
1776;BME280;885;42.626;23.200;2023-02-19T01:48:21;81267.19;;;9.85;59.23
1776;BME280;885;42.626;23.200;2023-02-19T01:50:51;81127.38;;;9.57;61.54
1776;BME280;885;42.626;23.200;2023-02-19T01:53:21;81008.47;;;9.40;62.80
1776;BME280;885;42.626;23.200;2023-02-19T01:55:52;80763.94;;;9.19;62.98
1776;BME280;885;42.626;23.200;2023-02-19T01:58:25;80645.69;;;8.98;63.72
1776;BME280;885;42.626;23.200;2023-02-19T02:00:53;80548.06;;;8.92;63.28
1776;BME280;885;42.626;23.200;2023-02-19T02:03:20;80363.38;;;8.76;63.26
1776;BME280;885;42.626;23.200;2023-02-19T02:05:54;80463.44;;;8.79;64.54
1776;BME280;885;42.626;23.200;2023-02-19T02:08:22;80405.94;;;8.54;66.82
1776;BME280;885;42.626;23.200;2023-02-19T02:11:07;80425.88;;;8.58;65.83
1776;BME280;885;42.626;23.200;2023-02-19T02:13:37;80449.19;;;8.48;68.04
1776;BME280;885;42.626;23.200;2023-02-19T02:16:14;80449.97;;;8.42;68.20
1776;BME280;885;42.626;23.200;2023-02-19T02:18:57;80308.63;;;8.31;68.83
1776;BME280;885;42.626;23.200;2023-02-19T02:21:59;80344.09;;;8.30;69.05
1776;BME280;885;42.626;23.200;2023-02-19T02:27:52;80102.75;;;8.27;63.59
1776;BME280;885;42.626;23.200;2023-02-19T02:30:30;80258.19;;;8.38;65.60
1776;BME280;885;42.626;23.200;2023-02-19T02:33:05;80381.34;;;8.37;68.78
1776;BME280;885;42.626;23.200;2023-02-19T02:35:41;80352.94;;;8.32;68.06
1776;BME280;885;42.626;23.200;2023-02-19T02:38:10;80236.13;;;8.07;69.55
1776;BME280;885;42.626;23.200;2023-02-19T02:40:41;80268.78;;;8.06;71.38
1776;BME280;885;42.626;23.200;2023-02-19T02:43:09;80147.97;;;7.95;70.09
1776;BME280;885;42.626;23.200;2023-02-19T02:45:38;80007.13;;;7.87;69.54
1776;BME280;885;42.626;23.200;2023-02-19T02:48:10;79855.81;;;7.52;71.26
1776;BME280;885;42.626;23.200;2023-02-19T02:50:41;79715.91;;;7.53;69.14
1776;BME280;885;42.626;23.200;2023-02-19T02:53:12;79808.34;;;7.64;69.88
1776;BME280;885;42.626;23.200;2023-02-19T02:55:59;79946.91;;;7.73;70.14
1776;BME280;885;42.626;23.200;2023-02-19T02:58:27;79997.13;;;7.72;71.54
1776;BME280;885;42.626;23.200;2023-02-19T03:01:01;79911.91;;;7.65;70.48
1776;BME280;885;42.626;23.200;2023-02-19T03:03:50;79887.16;;;7.50;72.40
1776;BME280;885;42.626;23.200;2023-02-19T03:06:21;79801.16;;;7.29;73.94
1776;BME280;885;42.626;23.200;2023-02-19T03:08:52;79672.59;;;7.10;75.11
1776;BME280;885;42.626;23.200;2023-02-19T03:11:20;79706.47;;;7.10;74.86
1776;BME280;885;42.626;23.200;2023-02-19T03:14:09;79558.59;;;6.98;74.23
1776;BME280;885;42.626;23.200;2023-02-19T03:16:58;79639.28;;;7.06;74.65
1776;BME280;885;42.626;23.200;2023-02-19T03:19:48;79579.84;;;6.92;75.60
1776;BME280;885;42.626;23.200;2023-02-19T03:22:19;79525.44;;;6.78;76.23
1776;BME280;885;42.626;23.200;2023-02-19T03:24:51;79410.59;;;6.68;75.60
1776;BME280;885;42.626;23.200;2023-02-19T03:27:37;79538.47;;;6.71;76.69
1776;BME280;885;42.626;23.200;2023-02-19T03:30:10;79569.19;;;6.73;76.62
1776;BME280;885;42.626;23.200;2023-02-19T03:32:41;79577.94;;;6.71;76.80
1776;BME280;885;42.626;23.200;2023-02-19T03:35:13;79595.13;;;6.49;80.34
1776;BME280;885;42.626;23.200;2023-02-19T03:37:44;79617.75;;;6.53;79.93
1776;BME280;885;42.626;23.200;2023-02-19T03:40:12;79713.06;;;6.57;79.79
1776;BME280;885;42.626;23.200;2023-02-19T03:42:45;79700.38;;;6.67;77.84
1776;BME280;885;42.626;23.200;2023-02-19T03:45:25;79775.59;;;6.84;76.11
1776;BME280;885;42.626;23.200;2023-02-19T03:48:05;79725.53;;;6.89;74.62
1776;BME280;885;42.626;23.200;2023-02-19T03:50:42;79865.22;;;6.84;78.41
1776;BME280;885;42.626;23.200;2023-02-19T03:53:18;79893.41;;;6.68;80.77
1776;BME280;885;42.626;23.200;2023-02-19T03:55:54;79648.84;;;6.58;77.91
1776;BME280;885;42.626;23.200;2023-02-19T03:58:26;79708.41;;;6.60;78.56
1776;BME280;885;42.626;23.200;2023-02-19T04:00:57;79628.88;;;6.44;79.96
1776;BME280;885;42.626;23.200;2023-02-19T04:03:33;79651.16;;;6.30;81.12
1776;BME280;885;42.626;23.200;2023-02-19T04:06:04;79449.34;;;5.98;81.95
1776;BME280;885;42.626;23.200;2023-02-19T04:08:35;79643.31;;;6.11;82.20
1776;BME280;885;42.626;23.200;2023-02-19T04:11:03;79677.22;;;6.15;81.58
1776;BME280;885;42.626;23.200;2023-02-19T04:13:32;79801.88;;;6.05;84.57
1776;BME280;885;42.626;23.200;2023-02-19T04:16:03;79728.81;;;6.14;80.60
1776;BME280;885;42.626;23.200;2023-02-19T04:18:37;79964.25;;;6.28;82.06
1776;BME280;885;42.626;23.200;2023-02-19T04:21:06;79944.78;;;6.26;81.77
1776;BME280;885;42.626;23.200;2023-02-19T04:23:37;79916.78;;;6.20;81.85
1776;BME280;885;42.626;23.200;2023-02-19T04:26:06;79986.50;;;6.15;83.48
1776;BME280;885;42.626;23.200;2023-02-19T04:28:34;80064.59;;;6.21;82.46
1776;BME280;885;42.626;23.200;2023-02-19T04:31:01;79950.44;;;6.00;83.31
1776;BME280;885;42.626;23.200;2023-02-19T04:33:27;79657.13;;;5.50;84.94
1776;BME280;885;42.626;23.200;2023-02-19T04:35:55;79836.03;;;5.65;84.55
1776;BME280;885;42.626;23.200;2023-02-19T04:38:22;80011.94;;;5.82;83.92
1776;BME280;885;42.626;23.200;2023-02-19T04:40:50;80113.44;;;5.97;83.22
1776;BME280;885;42.626;23.200;2023-02-19T04:43:16;80085.31;;;5.86;83.75
1776;BME280;885;42.626;23.200;2023-02-19T04:45:43;79941.03;;;5.75;83.68
1776;BME280;885;42.626;23.200;2023-02-19T04:48:10;79926.66;;;5.50;86.02
1776;BME280;885;42.626;23.200;2023-02-19T04:50:37;80155.66;;;5.53;87.40
1776;BME280;885;42.626;23.200;2023-02-19T04:53:06;80547.84;;;5.69;88.27
1776;BME280;885;42.626;23.200;2023-02-19T04:55:35;80471.81;;;5.51;88.56
1776;BME280;885;42.626;23.200;2023-02-19T04:58:02;80231.88;;;5.29;88.01
1776;BME280;885;42.626;23.200;2023-02-19T05:00:29;80129.94;;;5.17;87.40
1776;BME280;885;42.626;23.200;2023-02-19T05:02:56;80456.31;;;5.46;87.74
1776;BME280;885;42.626;23.200;2023-02-19T05:05:23;80769.88;;;5.67;87.44
1776;BME280;885;42.626;23.200;2023-02-19T05:07:49;80812.06;;;5.73;87.02
1776;BME280;885;42.626;23.200;2023-02-19T05:10:18;80709.22;;;5.68;86.27
1776;BME280;885;42.626;23.200;2023-02-19T05:12:45;80673.31;;;5.44;87.91
1776;BME280;885;42.626;23.200;2023-02-19T05:15:11;80893.91;;;5.47;89.42
1776;BME280;885;42.626;23.200;2023-02-19T05:17:38;81299.94;;;5.54;90.62
1776;BME280;885;42.626;23.200;2023-02-19T05:20:06;81365.81;;;5.57;89.30
1776;BME280;885;42.626;23.200;2023-02-19T05:22:33;81040.13;;;5.36;89.05
1776;BME280;885;42.626;23.200;2023-02-19T05:24:59;81039.31;;;5.18;89.63
1776;BME280;885;42.626;23.200;2023-02-19T05:27:29;81232.63;;;5.13;90.83
1776;BME280;885;42.626;23.200;2023-02-19T05:29:56;81650.25;;;5.29;91.56
1776;BME280;885;42.626;23.200;2023-02-19T05:32:23;82040.28;;;5.34;91.56
1776;BME280;885;42.626;23.200;2023-02-19T05:34:50;81808.16;;;5.33;89.92
1776;BME280;885;42.626;23.200;2023-02-19T05:37:17;81922.84;;;5.48;89.68
1776;BME280;885;42.626;23.200;2023-02-19T05:39:43;81967.31;;;5.54;88.48
1776;BME280;885;42.626;23.200;2023-02-19T05:42:12;82032.31;;;5.37;89.74
1776;BME280;885;42.626;23.200;2023-02-19T05:44:41;82342.84;;;5.59;89.35
1776;BME280;885;42.626;23.200;2023-02-19T05:47:08;82380.44;;;5.79;87.68
1776;BME280;885;42.626;23.200;2023-02-19T05:49:34;82412.81;;;5.95;87.13
1776;BME280;885;42.626;23.200;2023-02-19T05:52:01;83027.59;;;6.08;88.59
1776;BME280;885;42.626;23.200;2023-02-19T05:54:29;83094.94;;;6.12;88.36
1776;BME280;885;42.626;23.200;2023-02-19T05:56:56;82918.47;;;6.15;87.15
1776;BME280;885;42.626;23.200;2023-02-19T05:59:24;82572.91;;;6.01;86.61
1776;BME280;885;42.626;23.200;2023-02-19T06:01:53;82607.72;;;6.06;86.26
1776;BME280;885;42.626;23.200;2023-02-19T06:04:22;82522.13;;;6.10;85.62
1776;BME280;885;42.626;23.200;2023-02-19T06:06:49;82610.13;;;5.87;88.19
1776;BME280;885;42.626;23.200;2023-02-19T06:09:16;83108.19;;;6.05;89.10
1776;BME280;885;42.626;23.200;2023-02-19T06:11:43;83341.13;;;6.19;88.69
1776;BME280;885;42.626;23.200;2023-02-19T06:14:11;83589.88;;;6.30;88.61
1776;BME280;885;42.626;23.200;2023-02-19T06:16:38;83628.81;;;6.38;87.85
1776;BME280;885;42.626;23.200;2023-02-19T06:19:06;83928.22;;;6.54;87.94
1776;BME280;885;42.626;23.200;2023-02-19T06:21:33;83969.91;;;6.64;86.24
1776;BME280;885;42.626;23.200;2023-02-19T06:24:03;83453.78;;;6.77;83.42
1776;BME280;885;42.626;23.200;2023-02-19T06:26:30;83159.56;;;6.68;83.09
1776;BME280;885;42.626;23.200;2023-02-19T06:28:57;83245.06;;;6.75;82.61
1776;BME280;885;42.626;23.200;2023-02-19T06:31:23;83210.22;;;6.70;83.26
1776;BME280;885;42.626;23.200;2023-02-19T06:33:50;83114.59;;;6.66;84.24
1776;BME280;885;42.626;23.200;2023-02-19T06:36:20;83314.81;;;6.68;84.01
1776;BME280;885;42.626;23.200;2023-02-19T06:38:47;83623.31;;;6.75;84.99
1776;BME280;885;42.626;23.200;2023-02-19T06:41:14;83616.59;;;7.08;82.00
1776;BME280;885;42.626;23.200;2023-02-19T06:43:41;83440.03;;;7.62;74.60
1776;BME280;885;42.626;23.200;2023-02-19T06:46:09;83682.09;;;8.13;71.29
1776;BME280;885;42.626;23.200;2023-02-19T06:48:38;83763.66;;;8.38;69.94
1776;BME280;885;42.626;23.200;2023-02-19T06:51:05;84026.50;;;8.71;67.77
1776;BME280;885;42.626;23.200;2023-02-19T06:53:33;83891.09;;;8.74;67.57
1776;BME280;885;42.626;23.200;2023-02-19T06:56:01;83765.25;;;8.62;68.88
1776;BME280;885;42.626;23.200;2023-02-19T06:58:29;83739.66;;;8.73;67.23
1776;BME280;885;42.626;23.200;2023-02-19T07:00:56;83863.97;;;8.77;68.46
1776;BME280;885;42.626;23.200;2023-02-19T07:03:22;83687.00;;;8.76;67.40
1776;BME280;885;42.626;23.200;2023-02-19T07:05:50;83712.00;;;8.82;67.03
1776;BME280;885;42.626;23.200;2023-02-19T07:08:17;83698.03;;;8.89;66.91
1776;BME280;885;42.626;23.200;2023-02-19T07:10:53;83772.91;;;9.00;65.43
1776;BME280;885;42.626;23.200;2023-02-19T07:13:20;83944.09;;;9.03;66.94
1776;BME280;885;42.626;23.200;2023-02-19T07:15:47;83500.25;;;8.74;67.48
1776;BME280;885;42.626;23.200;2023-02-19T07:18:14;83600.75;;;8.92;66.70
1776;BME280;885;42.626;23.200;2023-02-19T07:20:40;83911.69;;;9.19;65.85
1776;BME280;885;42.626;23.200;2023-02-19T07:23:07;84245.72;;;9.25;67.90
1776;BME280;885;42.626;23.200;2023-02-19T07:25:34;84438.91;;;9.19;69.62
1776;BME280;885;42.626;23.200;2023-02-19T07:28:04;84524.63;;;9.20;69.71
1776;BME280;885;42.626;23.200;2023-02-19T07:30:31;85086.84;;;9.65;67.27
1776;BME280;885;42.626;23.200;2023-02-19T07:32:59;86465.47;;;10.51;64.73
1776;BME280;885;42.626;23.200;2023-02-19T07:35:25;86173.88;;;10.87;59.81
1776;BME280;885;42.626;23.200;2023-02-19T07:37:52;87410.78;;;11.51;58.83
1776;BME280;885;42.626;23.200;2023-02-19T07:40:19;87428.41;;;11.82;56.11
1776;BME280;885;42.626;23.200;2023-02-19T07:42:46;88768.44;;;12.53;54.33
1776;BME280;885;42.626;23.200;2023-02-19T07:45:14;90768.22;;;13.50;52.96
1776;BME280;885;42.626;23.200;2023-02-19T07:47:41;95168.38;;;15.09;50.27
1776;BME280;885;42.626;23.200;2023-02-19T07:50:08;98087.16;;;16.25;48.20
1776;BME280;885;42.626;23.200;2023-02-19T07:52:34;99330.19;;;17.38;41.82
1776;BME280;885;42.626;23.200;2023-02-19T07:55:01;101941.50;;;18.26;41.62
1776;BME280;885;42.626;23.200;2023-02-19T07:57:28;100095.91;;;18.14;40.31
1776;BME280;885;42.626;23.200;2023-02-19T07:59:55;102537.44;;;18.94;39.15
1776;BME280;885;42.626;23.200;2023-02-19T08:02:24;104284.28;;;19.67;37.07
1776;BME280;885;42.626;23.200;2023-02-19T08:05:08;100635.63;;;19.02;37.96
1776;BME280;885;42.626;23.200;2023-02-19T08:07:36;103282.13;;;19.87;36.33
1776;BME280;885;42.626;23.200;2023-02-19T08:10:03;96547.88;;;18.19;37.97
1776;BME280;885;42.626;23.200;2023-02-19T08:12:54;102548.75;;;19.81;36.71
1776;BME280;885;42.626;23.200;2023-02-19T08:15:38;109222.66;;;21.27;35.99
1776;BME280;885;42.626;23.200;2023-02-19T08:18:07;107036.03;;;21.18;34.93
1776;BME280;885;42.626;23.200;2023-02-19T08:20:33;102974.50;;;20.52;34.53
1776;BME280;885;42.626;23.200;2023-02-19T08:23:00;98492.34;;;19.24;36.78
1776;BME280;885;42.626;23.200;2023-02-19T08:25:27;98396.31;;;19.31;36.52
1776;BME280;885;42.626;23.200;2023-02-19T08:27:54;101359.56;;;20.11;36.12
1776;BME280;885;42.626;23.200;2023-02-19T08:30:22;101299.72;;;20.17;35.85
1776;BME280;885;42.626;23.200;2023-02-19T08:32:49;90686.16;;;16.60;40.44
1776;BME280;885;42.626;23.200;2023-02-19T08:35:17;92195.69;;;17.06;41.38
1776;BME280;885;42.626;23.200;2023-02-19T08:37:44;92545.00;;;17.20;41.08
1776;BME280;885;42.626;23.200;2023-02-19T08:40:11;90395.91;;;16.46;41.40
1776;BME280;885;42.626;23.200;2023-02-19T08:42:38;90434.66;;;16.37;42.36
1776;BME280;885;42.626;23.200;2023-02-19T08:45:05;87664.97;;;14.99;44.62
1776;BME280;885;42.626;23.200;2023-02-19T08:47:34;87139.94;;;14.57;46.81
1776;BME280;885;42.626;23.200;2023-02-19T08:50:01;87888.78;;;14.87;46.87
1776;BME280;885;42.626;23.200;2023-02-19T08:52:31;88127.41;;;15.02;46.39
1776;BME280;885;42.626;23.200;2023-02-19T08:54:58;86809.66;;;14.22;48.22
1776;BME280;885;42.626;23.200;2023-02-19T08:57:25;87075.13;;;14.35;48.67
1776;BME280;885;42.626;23.200;2023-02-19T08:59:53;87134.41;;;14.36;48.96
1776;BME280;885;42.626;23.200;2023-02-19T09:02:20;86428.22;;;13.90;49.86
1776;BME280;885;42.626;23.200;2023-02-19T09:04:47;85813.34;;;13.52;51.04
1776;BME280;885;42.626;23.200;2023-02-19T09:07:14;86103.34;;;13.62;51.25
1776;BME280;885;42.626;23.200;2023-02-19T09:09:42;86833.78;;;13.96;52.02
1776;BME280;885;42.626;23.200;2023-02-19T09:12:11;85407.16;;;13.20;52.45
1776;BME280;885;42.626;23.200;2023-02-19T09:14:38;85179.56;;;13.10;51.67
1776;BME280;885;42.626;23.200;2023-02-19T09:17:06;85162.16;;;13.03;52.00
1776;BME280;885;42.626;23.200;2023-02-19T09:19:33;85862.38;;;13.44;51.98
1776;BME280;885;42.626;23.200;2023-02-19T09:22:00;85686.44;;;13.49;50.61
1776;BME280;885;42.626;23.200;2023-02-19T09:24:27;86051.03;;;13.65;50.52
1776;BME280;885;42.626;23.200;2023-02-19T09:26:55;86677.63;;;14.03;50.05
1776;BME280;885;42.626;23.200;2023-02-19T09:29:24;87318.28;;;14.35;49.65
1776;BME280;885;42.626;23.200;2023-02-19T09:31:54;88058.00;;;14.77;48.17
1776;BME280;885;42.626;23.200;2023-02-19T09:34:21;88743.13;;;15.12;47.21
1776;BME280;885;42.626;23.200;2023-02-19T09:36:48;88581.88;;;15.16;47.06
1776;BME280;885;42.626;23.200;2023-02-19T09:39:15;88778.75;;;15.21;46.88
1776;BME280;885;42.626;23.200;2023-02-19T09:41:44;89178.34;;;15.36;47.37
1776;BME280;885;42.626;23.200;2023-02-19T09:44:17;89530.78;;;15.58;46.49
1776;BME280;885;42.626;23.200;2023-02-19T09:46:47;89648.34;;;15.64;46.03
1776;BME280;885;42.626;23.200;2023-02-19T09:49:17;89159.56;;;15.47;46.39
1776;BME280;885;42.626;23.200;2023-02-19T09:51:49;89070.09;;;15.39;46.53
1776;BME280;885;42.626;23.200;2023-02-19T09:54:20;90003.28;;;15.78;46.13
1776;BME280;885;42.626;23.200;2023-02-19T09:56:48;90743.19;;;16.10;46.17
1776;BME280;885;42.626;23.200;2023-02-19T09:59:20;90743.31;;;16.24;44.54
1776;BME280;885;42.626;23.200;2023-02-19T10:01:53;87489.38;;;14.86;45.59
1776;BME280;885;42.626;23.200;2023-02-19T10:04:22;88007.25;;;14.98;46.50
1776;BME280;885;42.626;23.200;2023-02-19T10:06:50;88646.88;;;15.23;46.45
1776;BME280;885;42.626;23.200;2023-02-19T10:09:20;89721.47;;;15.67;46.46
1776;BME280;885;42.626;23.200;2023-02-19T10:11:48;90184.78;;;16.07;44.46
1776;BME280;885;42.626;23.200;2023-02-19T10:14:21;90689.53;;;16.32;43.88
1776;BME280;885;42.626;23.200;2023-02-19T10:16:50;90548.75;;;16.24;43.81
1776;BME280;885;42.626;23.200;2023-02-19T10:19:18;89834.66;;;15.90;45.08
1776;BME280;885;42.626;23.200;2023-02-19T10:21:45;90145.31;;;16.07;44.57
1776;BME280;885;42.626;23.200;2023-02-19T10:24:16;88715.22;;;15.45;45.35
1776;BME280;885;42.626;23.200;2023-02-19T10:26:45;89992.47;;;16.01;44.59
1776;BME280;885;42.626;23.200;2023-02-19T10:29:12;89780.84;;;15.95;44.18
1776;BME280;885;42.626;23.200;2023-02-19T10:31:40;90517.19;;;16.26;44.60
1776;BME280;885;42.626;23.200;2023-02-19T10:34:19;91527.00;;;16.73;43.09
1776;BME280;885;42.626;23.200;2023-02-19T10:36:47;92139.38;;;16.99;42.47
1776;BME280;885;42.626;23.200;2023-02-19T10:39:35;91999.13;;;16.97;42.49
1776;BME280;885;42.626;23.200;2023-02-19T10:42:04;91786.84;;;16.90;42.72
1776;BME280;885;42.626;23.200;2023-02-19T10:44:34;92230.94;;;17.06;42.52
1776;BME280;885;42.626;23.200;2023-02-19T10:47:06;91543.00;;;16.84;42.28
1776;BME280;885;42.626;23.200;2023-02-19T10:49:36;91779.03;;;16.94;42.13
1776;BME280;885;42.626;23.200;2023-02-19T10:52:12;92789.97;;;17.30;42.28
1776;BME280;885;42.626;23.200;2023-02-19T10:54:42;93089.28;;;17.46;41.51
1776;BME280;885;42.626;23.200;2023-02-19T10:57:27;93544.09;;;17.58;41.89
1776;BME280;885;42.626;23.200;2023-02-19T11:00:00;93203.91;;;17.50;41.58
1776;BME280;885;42.626;23.200;2023-02-19T11:02:30;92631.16;;;17.36;41.40
1776;BME280;885;42.626;23.200;2023-02-19T11:05:18;92360.38;;;17.28;41.36
1776;BME280;885;42.626;23.200;2023-02-19T11:07:47;93420.75;;;17.68;40.81
1776;BME280;885;42.626;23.200;2023-02-19T11:10:22;93204.63;;;17.66;40.54
1776;BME280;885;42.626;23.200;2023-02-19T11:12:50;94008.47;;;17.95;40.30
1776;BME280;885;42.626;23.200;2023-02-19T11:15:20;93837.97;;;17.87;40.79
1776;BME280;885;42.626;23.200;2023-02-19T11:18:03;91467.16;;;17.03;41.19
1776;BME280;885;42.626;23.200;2023-02-19T11:20:31;93484.50;;;17.76;40.43
1776;BME280;885;42.626;23.200;2023-02-19T11:23:10;93851.94;;;18.06;39.03
1776;BME280;885;42.626;23.200;2023-02-19T11:25:44;93703.41;;;17.89;40.50
1776;BME280;885;42.626;23.200;2023-02-19T11:28:22;94540.59;;;18.23;39.74
1776;BME280;885;42.626;23.200;2023-02-19T11:30:49;95333.28;;;18.55;38.68
1776;BME280;885;42.626;23.200;2023-02-19T11:33:24;95530.16;;;18.63;38.78
1776;BME280;885;42.626;23.200;2023-02-19T11:35:57;97895.09;;;19.29;38.70
1776;BME280;885;42.626;23.200;2023-02-19T11:38:25;96842.44;;;19.17;37.51
1776;BME280;885;42.626;23.200;2023-02-19T11:40:58;98457.78;;;19.67;36.78
1776;BME280;885;42.626;23.200;2023-02-19T11:43:41;97207.97;;;19.52;36.17
1776;BME280;885;42.626;23.200;2023-02-19T11:46:16;98151.72;;;19.78;35.67
1776;BME280;885;42.626;23.200;2023-02-19T11:48:51;98289.59;;;19.76;36.67
1776;BME280;885;42.626;23.200;2023-02-19T11:51:35;98769.84;;;19.98;35.92
1776;BME280;885;42.626;23.200;2023-02-19T11:54:26;98570.44;;;20.13;34.65
1776;BME280;885;42.626;23.200;2023-02-19T11:57:07;98934.50;;;20.24;34.87
1776;BME280;885;42.626;23.200;2023-02-19T11:59:41;101754.19;;;20.91;34.82
1776;BME280;885;42.626;23.200;2023-02-19T12:02:25;102395.50;;;21.07;34.87
1776;BME280;885;42.626;23.200;2023-02-19T12:05:17;102540.00;;;21.31;33.77
1776;BME280;885;42.626;23.200;2023-02-19T12:08:05;100413.91;;;20.91;33.37
1776;BME280;885;42.626;23.200;2023-02-19T12:10:45;95617.47;;;19.67;33.75
1776;BME280;885;42.626;23.200;2023-02-19T12:13:22;94285.88;;;19.08;35.35
1776;BME280;885;42.626;23.200;2023-02-19T12:16:10;94200.41;;;19.02;35.58
1776;BME280;885;42.626;23.200;2023-02-19T12:18:57;91259.78;;;17.91;36.71
1776;BME280;885;42.626;23.200;2023-02-19T12:21:37;91171.84;;;17.82;37.09
1776;BME280;885;42.626;23.200;2023-02-19T12:24:32;94130.25;;;19.00;35.90
1776;BME280;885;42.626;23.200;2023-02-19T12:27:14;97865.78;;;20.03;36.31
1776;BME280;885;42.626;23.200;2023-02-19T12:30:22;98489.06;;;20.41;34.56
1776;BME280;885;42.626;23.200;2023-02-19T12:33:27;96304.34;;;19.85;34.75
1776;BME280;885;42.626;23.200;2023-02-19T12:36:03;93684.28;;;19.01;35.01
1776;BME280;885;42.626;23.200;2023-02-19T12:38:40;92055.00;;;18.35;36.31
1776;BME280;885;42.626;23.200;2023-02-19T12:41:19;94012.31;;;19.08;35.94
1776;BME280;885;42.626;23.200;2023-02-19T12:43:53;96727.75;;;20.05;34.43
1776;BME280;885;42.626;23.200;2023-02-19T12:46:28;99307.38;;;20.79;34.25
1776;BME280;885;42.626;23.200;2023-02-19T12:49:02;98657.63;;;20.64;34.20
1776;BME280;885;42.626;23.200;2023-02-19T12:51:38;99695.72;;;20.99;33.81
1776;BME280;885;42.626;23.200;2023-02-19T12:54:13;100219.63;;;21.36;32.29
1776;BME280;885;42.626;23.200;2023-02-19T12:56:46;98658.13;;;20.92;33.07
1776;BME280;885;42.626;23.200;2023-02-19T12:59:21;100307.50;;;21.37;32.82
1776;BME280;885;42.626;23.200;2023-02-19T13:01:55;102425.59;;;21.86;32.70
1776;BME280;885;42.626;23.200;2023-02-19T13:04:29;101212.84;;;21.62;32.53
1776;BME280;885;42.626;23.200;2023-02-19T13:07:02;98991.41;;;21.19;32.24
1776;BME280;885;42.626;23.200;2023-02-19T13:09:34;102168.22;;;21.85;32.62
1776;BME280;885;42.626;23.200;2023-02-19T13:12:06;100311.56;;;21.45;32.88
1776;BME280;885;42.626;23.200;2023-02-19T13:14:36;99106.03;;;21.31;31.82
1776;BME280;885;42.626;23.200;2023-02-19T13:17:16;97710.28;;;20.86;33.11
1776;BME280;885;42.626;23.200;2023-02-19T13:19:46;98776.03;;;21.13;32.80
1776;BME280;885;42.626;23.200;2023-02-19T13:22:19;100310.97;;;21.61;32.71
1776;BME280;885;42.626;23.200;2023-02-19T13:25:08;101662.13;;;22.14;31.03
1776;BME280;885;42.626;23.200;2023-02-19T13:27:49;98123.22;;;20.98;33.13
1776;BME280;885;42.626;23.200;2023-02-19T13:30:41;102036.31;;;22.04;32.48
1776;BME280;885;42.626;23.200;2023-02-19T13:33:31;106907.66;;;23.43;30.25
1776;BME280;885;42.626;23.200;2023-02-19T13:36:04;101350.59;;;22.16;31.25
1776;BME280;885;42.626;23.200;2023-02-19T13:38:37;102252.19;;;22.43;31.24
1776;BME280;885;42.626;23.200;2023-02-19T13:41:17;96401.28;;;20.79;32.26
1776;BME280;885;42.626;23.200;2023-02-19T13:43:44;94949.66;;;20.36;32.17
1776;BME280;885;42.626;23.200;2023-02-19T13:46:14;92203.31;;;19.23;34.36
1776;BME280;885;42.626;23.200;2023-02-19T13:48:42;95555.66;;;20.31;34.08
1776;BME280;885;42.626;23.200;2023-02-19T13:51:47;100225.78;;;21.95;31.50